Time;durP1;ratioP1;P1;durP2;ratioP2;P2;SDS_P1;SDS_P2;PMS_P1;PMS_P2;Temp;Humidity;BMP_temperature;BMP_pressure;BME280_temperature;BME280_humidity;BME280_pressure;Samples;Min_cycle;Max_cycle;Signal;HPM_P1;HPM_P2
2022/03/01 00:00:16;;;;;;;13.40;9.27;;;;;;;4.61;73.69;102860.50;5038674;28;20253;-77
2022/03/01 00:02:44;;;;;;;12.55;9.52;;;;;;;4.61;73.71;102875.19;5046057;28;20033;-76
2022/03/01 00:05:09;;;;;;;16.10;9.75;;;;;;;4.60;73.85;102873.44;5037336;28;20226;-76
2022/03/01 00:07:35;;;;;;;13.65;9.38;;;;;;;4.59;73.96;102871.72;5021600;28;20037;-77
2022/03/01 00:10:00;;;;;;;10.98;9.40;;;;;;;4.58;73.43;102875.13;5022243;28;20033;-76
2022/03/01 00:12:26;;;;;;;14.45;9.73;;;;;;;4.55;73.33;102877.72;5023782;28;20293;-77
2022/03/01 00:14:52;;;;;;;13.68;9.15;;;;;;;4.54;73.27;102878.53;5057596;28;20040;-77
2022/03/01 00:17:17;;;;;;;13.43;9.18;;;;;;;4.53;73.29;102875.06;5023887;28;20264;-76
2022/03/01 00:19:43;;;;;;;12.20;9.27;;;;;;;4.51;73.41;102879.38;5021689;28;20036;-76
2022/03/01 00:22:08;;;;;;;12.52;8.43;;;;;;;4.49;73.20;102877.59;5038390;28;20041;-76
2022/03/01 00:24:34;;;;;;;14.43;10.30;;;;;;;4.47;73.10;102877.53;5038571;28;20049;-77
2022/03/01 00:26:59;;;;;;;13.63;9.88;;;;;;;4.46;72.87;102874.91;5003598;28;20048;-77
2022/03/01 00:29:24;;;;;;;10.80;8.95;;;;;;;4.45;72.95;102873.19;5038362;28;20068;-76
2022/03/01 00:31:50;;;;;;;14.88;10.00;;;;;;;4.42;73.26;102872.28;5020903;28;20072;-76
2022/03/01 00:34:17;;;;;;;13.45;9.27;;;;;;;4.42;73.57;102880.06;5020390;28;20259;-77
2022/03/01 00:36:42;;;;;;;15.60;10.18;;;;;;;4.41;73.51;102883.50;5001302;28;20087;-77
2022/03/01 00:39:08;;;;;;;15.35;9.70;;;;;;;4.41;73.74;102874.84;5032060;28;20065;-77
2022/03/01 00:41:34;;;;;;;15.32;9.68;;;;;;;4.39;73.88;102873.97;5038532;28;20048;-76
2022/03/01 00:43:59;;;;;;;14.07;9.77;;;;;;;4.38;73.56;102870.50;5021066;28;20229;-76
2022/03/01 00:46:26;;;;;;;12.57;9.10;;;;;;;4.38;73.60;102869.59;5038870;28;20037;-76
2022/03/01 00:48:56;;;;;;;13.93;9.15;;;;;;;4.36;73.41;102868.72;5038519;28;20041;-77
2022/03/01 00:51:22;;;;;;;13.52;9.02;;;;;;;4.34;73.37;102871.28;5020938;28;20037;-76
2022/03/01 00:53:48;;;;;;;13.10;9.15;;;;;;;4.34;73.24;102873.00;5038390;28;20104;-76
2022/03/01 00:56:13;;;;;;;12.88;8.68;;;;;;;4.32;73.08;102874.69;5038361;28;20108;-77
2022/03/01 00:58:38;;;;;;;14.75;9.20;;;;;;;4.31;73.08;102872.94;5038960;28;20044;-76
2022/03/01 01:01:04;;;;;;;12.40;9.05;;;;;;;4.28;72.93;102878.97;5038523;28;20038;-76
2022/03/01 01:03:29;;;;;;;12.15;8.77;;;;;;;4.27;72.83;102877.19;5020965;28;20034;-76
2022/03/01 01:05:55;;;;;;;12.73;9.48;;;;;;;4.26;73.03;102870.28;5020706;28;20101;-76
2022/03/01 01:08:21;;;;;;;14.32;9.85;;;;;;;4.25;72.81;102863.31;5038301;28;20083;-76
2022/03/01 01:10:47;;;;;;;13.48;9.85;;;;;;;4.23;73.39;102860.69;5038416;28;20041;-76
2022/03/01 01:13:14;;;;;;;13.07;9.35;;;;;;;4.25;73.54;102865.06;5037815;28;20052;-77
2022/03/01 01:15:40;;;;;;;15.07;10.30;;;;;;;4.24;73.47;102866.78;5038638;28;20029;-76
2022/03/01 01:18:05;;;;;;;13.23;9.63;;;;;;;4.22;73.18;102869.34;5020180;28;20202;-76
2022/03/01 01:20:31;;;;;;;16.20;10.20;;;;;;;4.21;73.41;102870.19;5020759;28;20045;-76
2022/03/01 01:22:56;;;;;;;17.20;10.60;;;;;;;4.20;73.70;102867.56;5038281;28;20029;-76
2022/03/01 01:25:23;;;;;;;13.15;9.80;;;;;;;4.20;73.91;102868.44;5038115;28;20257;-76
2022/03/01 01:27:53;;;;;;;16.00;9.95;;;;;;;4.20;74.27;102868.44;5020896;28;20108;-76
2022/03/01 01:30:22;;;;;;;13.55;9.30;;;;;;;4.22;74.40;102868.44;5039942;28;20036;-76
2022/03/01 01:32:48;;;;;;;14.07;9.82;;;;;;;4.22;74.68;102858.06;5041978;28;20033;-76
2022/03/01 01:35:16;;;;;;;15.55;10.60;;;;;;;4.23;75.10;102862.44;5041997;28;20049;-76
2022/03/01 01:37:42;;;;;;;12.80;8.63;;;;;;;4.22;75.09;102850.28;5041920;28;20117;-77
2022/03/01 01:40:12;;;;;;;11.90;9.48;;;;;;;4.25;75.30;102859.88;5041774;28;20379;-77
2022/03/01 01:42:37;;;;;;;12.98;9.25;;;;;;;4.24;75.43;102861.59;5060474;28;20094;-77
2022/03/01 01:45:03;;;;;;;14.40;9.70;;;;;;;4.26;75.60;102861.59;5043982;28;20036;-76
2022/03/01 01:47:29;;;;;;;13.30;9.18;;;;;;;4.26;75.57;102859.00;5061749;28;20041;-77
2022/03/01 01:49:54;;;;;;;15.77;10.15;;;;;;;4.26;75.69;102859.00;5061757;28;20036;-77
2022/03/01 01:52:20;;;;;;;11.00;8.20;;;;;;;4.28;75.89;102855.63;5044112;28;20032;-76
2022/03/01 01:54:45;;;;;;;13.88;9.43;;;;;;;4.29;76.15;102853.88;5061885;28;20041;-76
2022/03/01 01:57:19;;;;;;;8.38;7.38;;;;;;;4.30;75.95;102848.72;5056725;28;20399;-76
2022/03/01 01:59:46;;;;;;;12.55;8.57;;;;;;;4.30;76.07;102846.13;5041803;28;20202;-76
2022/03/01 02:04:54;;;;;;;13.00;8.93;;;;;;;4.32;76.23;102852.22;5039007;28;20075;-76
2022/03/01 02:07:20;;;;;;;12.68;8.93;;;;;;;4.32;76.45;102847.03;5061567;28;20055;-76
2022/03/01 02:09:45;;;;;;;17.13;9.95;;;;;;;4.35;76.47;102841.03;5052441;28;20040;-76
2022/03/01 02:12:11;;;;;;;13.32;9.40;;;;;;;4.36;76.54;102834.97;5023644;28;20041;-76
2022/03/01 02:14:40;;;;;;;15.57;9.32;;;;;;;4.36;76.76;102838.44;5041602;28;20033;-76
2022/03/01 02:17:08;;;;;;;14.52;9.70;;;;;;;4.37;76.75;102837.63;5023139;28;20036;-77
2022/03/01 02:19:34;;;;;;;10.40;8.53;;;;;;;4.38;76.86;102834.19;5023542;28;20519;-77
2022/03/01 02:22:00;;;;;;;14.75;8.98;;;;;;;4.38;76.76;102834.19;5040885;28;20198;-77
2022/03/01 02:24:30;;;;;;;15.80;10.45;;;;;;;4.40;76.85;102826.41;5041291;28;20159;-76
2022/03/01 02:26:57;;;;;;;17.05;10.25;;;;;;;4.39;77.13;102828.13;5023168;28;20048;-76
2022/03/01 02:29:22;;;;;;;13.60;8.88;;;;;;;4.41;77.30;102823.84;5041044;28;20343;-76
2022/03/01 02:31:49;;;;;;;17.88;10.63;;;;;;;4.41;77.33;102823.84;5023298;28;20037;-76
2022/03/01 02:34:15;;;;;;;10.18;8.30;;;;;;;4.42;77.12;102829.88;5040968;28;20026;-76
2022/03/01 02:36:40;;;;;;;17.02;10.95;;;;;;;4.43;77.31;102829.06;5021492;28;20050;-76
2022/03/01 02:39:06;;;;;;;13.77;9.35;;;;;;;4.43;77.53;102823.88;5030953;28;20033;-76
2022/03/01 02:41:31;;;;;;;14.82;10.15;;;;;;;4.43;77.44;102837.69;5040768;28;20037;-76
2022/03/01 02:43:57;;;;;;;13.93;9.52;;;;;;;4.45;77.61;102834.28;5022997;28;20044;-76
2022/03/01 02:46:22;;;;;;;15.18;10.20;;;;;;;4.45;77.43;102829.94;5023212;28;20044;-76
2022/03/01 02:48:48;;;;;;;13.38;9.40;;;;;;;4.45;77.60;102822.16;5040382;28;20040;-76
2022/03/01 02:51:13;;;;;;;12.95;9.80;;;;;;;4.46;77.58;102829.13;5040473;28;20076;-76
2022/03/01 02:53:38;;;;;;;12.68;9.35;;;;;;;4.47;77.54;102827.38;5040860;28;20060;-76
2022/03/01 02:56:04;;;;;;;17.50;10.32;;;;;;;4.46;77.60;102823.03;5040178;28;20065;-76
2022/03/01 02:58:30;;;;;;;15.30;9.75;;;;;;;4.47;77.76;102827.38;5040809;28;20037;-76
2022/03/01 03:00:55;;;;;;;16.27;10.00;;;;;;;4.47;77.61;102830.84;5022731;28;20426;-77
2022/03/01 03:03:21;;;;;;;14.10;9.43;;;;;;;4.47;77.75;102825.66;5023003;28;20109;-76
2022/03/01 03:05:46;;;;;;;14.35;10.05;;;;;;;4.47;77.67;102829.97;5022769;28;20044;-76
2022/03/01 03:08:12;;;;;;;14.15;9.55;;;;;;;4.47;77.57;102830.84;5040397;28;20202;-76
2022/03/01 03:10:37;;;;;;;15.75;10.20;;;;;;;4.46;77.65;102828.22;5040506;28;20100;-76
2022/03/01 03:13:04;;;;;;;15.40;9.95;;;;;;;4.46;77.76;102829.13;5022468;28;20630;-76
2022/03/01 03:15:31;;;;;;;18.08;11.27;;;;;;;4.47;77.94;102827.38;5040511;28;20037;-76
2022/03/01 03:17:57;;;;;;;15.18;8.95;;;;;;;4.47;77.83;102823.06;5022630;28;20029;-76
2022/03/01 03:20:23;;;;;;;11.68;8.98;;;;;;;4.47;77.79;102825.66;5039986;28;20040;-76
2022/03/01 03:22:50;;;;;;;15.63;9.98;;;;;;;4.49;77.80;102838.66;5022122;28;20423;-77
2022/03/01 03:25:15;;;;;;;13.48;9.48;;;;;;;4.49;77.68;102838.66;5040044;28;20276;-77
2022/03/01 03:27:41;;;;;;;12.60;9.48;;;;;;;4.50;78.11;102835.22;5040288;28;20087;-76
2022/03/01 03:30:08;;;;;;;11.95;8.70;;;;;;;4.50;77.79;102837.81;5039448;28;20037;-76
2022/03/01 03:32:33;;;;;;;13.23;9.35;;;;;;;4.50;77.77;102837.81;5039625;28;20033;-76
2022/03/01 03:34:59;;;;;;;15.73;9.88;;;;;;;4.50;77.83;102832.63;5021813;28;20385;-77
2022/03/01 03:37:25;;;;;;;14.43;9.32;;;;;;;4.50;77.97;102833.50;5040267;28;20032;-76
2022/03/01 03:39:51;;;;;;;15.90;10.13;;;;;;;4.51;77.95;102834.38;5039219;28;20348;-76
2022/03/01 03:42:17;;;;;;;15.25;10.27;;;;;;;4.53;77.86;102835.25;5039566;28;20467;-76
2022/03/01 03:44:42;;;;;;;17.63;11.65;;;;;;;4.52;77.62;102825.75;5039181;28;20041;-77
2022/03/01 03:47:09;;;;;;;15.18;10.90;;;;;;;4.52;77.96;102816.22;5037899;28;20025;-76
2022/03/01 03:49:35;;;;;;;13.35;9.88;;;;;;;4.53;77.82;102812.81;5038453;28;20304;-76
2022/03/01 03:52:00;;;;;;;16.58;11.20;;;;;;;4.53;78.09;102814.50;4999965;28;20030;-76
2022/03/01 03:54:26;;;;;;;12.32;8.88;;;;;;;4.54;77.93;102809.34;5020996;28;20025;-76
2022/03/01 03:56:51;;;;;;;15.77;10.32;;;;;;;4.55;78.18;102813.69;5011988;28;20033;-76
2022/03/01 03:59:17;;;;;;;17.27;10.95;;;;;;;4.56;78.05;102823.22;5001152;28;20072;-78
2022/03/01 04:01:43;;;;;;;14.25;9.73;;;;;;;4.56;77.89;102820.63;5030632;28;20029;-78
2022/03/01 04:04:08;;;;;;;21.45;12.10;;;;;;;4.57;78.06;102818.91;5037660;28;20041;-78
2022/03/01 04:06:35;;;;;;;17.48;11.35;;;;;;;4.57;78.05;102814.59;5037801;28;20063;-78
2022/03/01 04:09:01;;;;;;;13.32;9.35;;;;;;;4.57;78.07;102811.13;5019714;28;20040;-78
2022/03/01 04:11:27;;;;;;;14.25;10.48;;;;;;;4.57;78.21;102814.59;5032813;28;20034;-78
2022/03/01 04:13:53;;;;;;;16.15;9.95;;;;;;;4.58;78.13;102802.47;5010191;28;20033;-78
2022/03/01 04:16:18;;;;;;;16.70;10.73;;;;;;;4.60;78.21;102795.59;5020136;28;20037;-78
2022/03/01 04:18:44;;;;;;;16.45;10.18;;;;;;;4.59;77.99;102801.63;5020275;28;20285;-78
2022/03/01 04:21:10;;;;;;;15.77;9.55;;;;;;;4.60;77.89;102809.47;5019364;28;20352;-78
2022/03/01 04:23:36;;;;;;;16.60;10.60;;;;;;;4.62;78.21;102812.09;5037395;28;20041;-78
2022/03/01 04:26:02;;;;;;;23.75;10.45;;;;;;;4.61;78.14;102803.41;5019759;28;20073;-78
2022/03/01 04:28:28;;;;;;;17.63;10.68;;;;;;;4.62;78.10;102806.88;5019880;28;20036;-78
2022/03/01 04:30:54;;;;;;;14.40;9.45;;;;;;;4.63;78.08;102807.75;5019664;28;20101;-78
2022/03/01 04:33:20;;;;;;;12.10;9.40;;;;;;;4.65;78.40;102808.66;5019637;28;20051;-78
2022/03/01 04:35:45;;;;;;;15.57;10.20;;;;;;;4.64;78.33;102800.00;5037682;28;20252;-78
2022/03/01 04:38:11;;;;;;;14.18;9.57;;;;;;;4.65;78.31;102808.66;5037166;28;20048;-78
2022/03/01 04:40:37;;;;;;;19.05;11.20;;;;;;;4.65;78.30;102806.91;5019665;28;20029;-79
2022/03/01 04:43:04;;;;;;;15.00;10.02;;;;;;;4.65;78.32;102804.31;5019319;28;20400;-78
2022/03/01 04:45:30;;;;;;;13.27;9.63;;;;;;;4.66;78.30;102808.69;5019761;28;20041;-78
2022/03/01 04:47:56;;;;;;;16.45;10.32;;;;;;;4.67;78.34;102804.34;5037311;28;20056;-78
2022/03/01 04:50:21;;;;;;;12.65;10.07;;;;;;;4.68;78.47;102808.69;5037255;28;20052;-78
2022/03/01 04:52:47;;;;;;;12.95;9.80;;;;;;;4.68;78.49;102801.78;5019668;28;20040;-78
2022/03/01 04:55:13;;;;;;;15.13;9.82;;;;;;;4.69;78.40;102807.84;5019882;28;20108;-78
2022/03/01 04:57:38;;;;;;;16.75;10.75;;;;;;;4.70;78.58;102807.00;5037909;28;20384;-78
2022/03/01 05:00:10;;;;;;;13.93;10.13;;;;;;;4.70;78.50;102802.66;4999749;28;20342;-78
2022/03/01 05:02:37;;;;;;;15.13;9.38;;;;;;;4.71;78.34;102800.94;5036915;28;20079;-78
2022/03/01 05:05:02;;;;;;;12.40;8.95;;;;;;;4.71;78.41;102807.03;5038835;28;20365;-78
2022/03/01 05:07:28;;;;;;;16.52;9.95;;;;;;;4.70;78.38;102797.47;5041515;28;20117;-78
2022/03/01 05:09:54;;;;;;;14.13;8.80;;;;;;;4.70;78.41;102800.06;5007010;28;20036;-78
2022/03/01 05:12:20;;;;;;;17.13;9.35;;;;;;;4.72;78.33;102794.91;5023449;28;20341;-78
2022/03/01 05:14:45;;;;;;;13.48;8.88;;;;;;;4.72;78.46;102787.13;5041240;28;20025;-78
2022/03/01 05:17:11;;;;;;;13.75;10.32;;;;;;;4.72;78.69;102787.13;5039646;28;20041;-78
2022/03/01 05:19:37;;;;;;;15.50;10.02;;;;;;;4.72;78.56;102787.13;5041204;28;20041;-78
2022/03/01 05:22:03;;;;;;;17.25;11.10;;;;;;;4.72;78.57;102793.19;5040778;28;20052;-78
2022/03/01 05:24:28;;;;;;;14.35;9.88;;;;;;;4.72;78.60;102788.00;5020958;28;20395;-78
2022/03/01 05:26:54;;;;;;;13.13;9.68;;;;;;;4.72;78.12;102785.41;5023970;28;20112;-78
2022/03/01 05:29:20;;;;;;;14.55;9.70;;;;;;;4.73;78.50;102783.66;5038329;28;20045;-78
2022/03/01 05:31:45;;;;;;;11.98;8.23;;;;;;;4.74;78.46;102785.41;5006945;28;20048;-78
2022/03/01 05:34:11;;;;;;;14.52;9.88;;;;;;;4.74;78.62;102793.22;5022568;28;20062;-78
2022/03/01 05:36:36;;;;;;;14.55;9.48;;;;;;;4.75;78.70;102787.19;5023372;28;20133;-78
2022/03/01 05:39:02;;;;;;;13.70;10.00;;;;;;;4.75;78.57;102794.97;5040168;28;20101;-78
2022/03/01 05:41:28;;;;;;;11.55;9.20;;;;;;;4.76;78.67;102794.09;5040872;28;20033;-78
2022/03/01 05:43:53;;;;;;;12.93;8.98;;;;;;;4.76;78.57;102794.09;5040304;28;20041;-78
2022/03/01 05:46:19;;;;;;;14.02;10.00;;;;;;;4.76;78.67;102787.19;5040296;28;20037;-78
2022/03/01 05:48:44;;;;;;;15.95;10.50;;;;;;;4.76;78.63;102786.31;5040393;28;20029;-78
2022/03/01 05:51:10;;;;;;;14.80;9.95;;;;;;;4.78;78.65;102789.81;5005782;28;20260;-78
2022/03/01 05:53:35;;;;;;;18.40;10.07;;;;;;;4.77;78.54;102794.13;5040820;28;20041;-78
2022/03/01 05:56:01;;;;;;;13.43;9.07;;;;;;;4.78;78.75;102798.47;5005858;28;20029;-78
2022/03/01 05:58:26;;;;;;;11.27;8.80;;;;;;;4.78;78.70;102801.06;5040313;28;20041;-78
2022/03/01 06:00:52;;;;;;;14.20;9.30;;;;;;;4.78;78.74;102801.06;5022497;28;20041;-78
2022/03/01 06:03:17;;;;;;;13.80;8.93;;;;;;;4.79;78.71;102801.94;5040169;28;20070;-78
2022/03/01 06:05:42;;;;;;;13.35;9.60;;;;;;;4.79;78.66;102800.22;5006295;28;20026;-78
2022/03/01 06:08:08;;;;;;;15.80;10.02;;;;;;;4.78;78.31;102789.81;5022090;28;20104;-78
2022/03/01 06:10:33;;;;;;;14.82;9.43;;;;;;;4.80;78.73;102791.59;5022569;28;20099;-78
2022/03/01 06:12:59;;;;;;;19.38;10.95;;;;;;;4.80;78.65;102803.66;5039510;28;20055;-78
2022/03/01 06:15:24;;;;;;;13.52;9.60;;;;;;;4.79;78.55;102795.03;5022310;28;20052;-78
2022/03/01 06:17:50;;;;;;;15.30;10.45;;;;;;;4.80;78.69;102790.69;5022595;28;20025;-78
2022/03/01 06:20:17;;;;;;;15.30;9.45;;;;;;;4.80;78.67;102795.88;5039567;28;20555;-78
2022/03/01 06:22:42;;;;;;;14.13;9.73;;;;;;;4.82;78.68;102789.00;5040518;28;20202;-78
2022/03/01 06:25:09;;;;;;;14.57;9.57;;;;;;;4.82;78.77;102781.22;5039285;28;20120;-78
2022/03/01 06:27:35;;;;;;;11.85;8.80;;;;;;;4.84;78.82;102776.03;5039767;28;20040;-78
2022/03/01 06:30:02;;;;;;;13.88;9.63;;;;;;;4.84;78.88;102781.22;5038796;28;20029;-78
2022/03/01 06:32:28;;;;;;;16.35;10.48;;;;;;;4.84;78.90;102786.41;5039872;28;20045;-78
2022/03/01 06:34:53;;;;;;;15.25;10.32;;;;;;;4.84;78.94;102795.09;5039463;28;20108;-78
2022/03/01 06:37:19;;;;;;;15.32;10.10;;;;;;;4.84;78.85;102802.88;5021333;28;20045;-78
2022/03/01 06:39:45;;;;;;;14.48;9.77;;;;;;;4.84;79.04;102800.28;5021930;28;20657;-78
2022/03/01 06:42:12;;;;;;;13.25;10.18;;;;;;;4.85;79.02;102817.59;5038680;28;20037;-78
2022/03/01 06:44:38;;;;;;;15.77;10.27;;;;;;;4.86;78.95;102832.34;5021887;28;20079;-78
2022/03/01 06:47:04;;;;;;;14.77;10.00;;;;;;;4.86;79.03;102834.03;5020612;28;20037;-78
2022/03/01 06:49:29;;;;;;;15.43;10.50;;;;;;;4.87;79.01;102820.22;5022035;28;20087;-78
2022/03/01 06:51:55;;;;;;;14.25;9.90;;;;;;;4.87;78.98;102838.41;5021235;28;20041;-78
2022/03/01 06:54:20;;;;;;;18.00;10.20;;;;;;;4.87;78.91;102828.88;5038639;28;20079;-78
2022/03/01 06:56:47;;;;;;;13.18;9.38;;;;;;;4.88;78.93;102834.97;5020984;28;20025;-78
2022/03/01 06:59:13;;;;;;;15.20;9.52;;;;;;;4.89;79.11;102818.50;5004852;28;20328;-78
2022/03/01 07:01:39;;;;;;;13.60;8.63;;;;;;;4.90;79.01;102834.13;5004630;28;20029;-78
2022/03/01 07:04:04;;;;;;;15.50;10.02;;;;;;;4.90;79.01;102839.31;5038352;28;20199;-78
2022/03/01 07:06:29;;;;;;;15.13;10.18;;;;;;;4.91;78.83;102835.88;5020971;28;20095;-78
2022/03/01 07:08:55;;;;;;;15.98;9.85;;;;;;;4.89;79.21;102836.69;5017502;28;20083;-78
2022/03/01 07:11:22;;;;;;;13.05;8.60;;;;;;;4.91;79.20;102835.00;5037143;28;20073;-78
2022/03/01 07:13:47;;;;;;;15.20;10.40;;;;;;;4.92;79.08;102828.97;5036947;28;20584;-78
2022/03/01 07:16:13;;;;;;;14.38;9.45;;;;;;;4.91;78.95;102830.69;5019321;28;20108;-78
2022/03/01 07:18:38;;;;;;;16.08;10.55;;;;;;;4.93;79.36;102830.69;5019476;28;20249;-78
2022/03/01 07:21:04;;;;;;;15.50;10.40;;;;;;;4.92;79.16;102837.63;5037001;28;20040;-78
2022/03/01 07:23:29;;;;;;;17.73;10.60;;;;;;;4.94;79.09;102845.44;5019530;28;20041;-78
2022/03/01 07:25:55;;;;;;;12.88;9.40;;;;;;;4.94;79.56;102848.03;5036413;28;20057;-78
2022/03/01 07:28:21;;;;;;;12.05;8.88;;;;;;;4.95;79.25;102852.38;5018766;28;20341;-78
2022/03/01 07:30:46;;;;;;;13.65;9.20;;;;;;;4.95;79.21;102850.66;5037006;28;20061;-78
2022/03/01 07:33:12;;;;;;;11.43;7.95;;;;;;;4.97;79.26;102851.53;5026388;28;20097;-78
2022/03/01 07:35:37;;;;;;;14.88;9.60;;;;;;;4.98;79.24;102849.81;5036330;28;20036;-78
2022/03/01 07:38:03;;;;;;;21.05;10.65;;;;;;;4.98;79.39;102855.91;5026759;28;20214;-78
2022/03/01 07:40:28;;;;;;;15.20;9.02;;;;;;;5.00;79.24;102866.28;4993356;28;20235;-78
2022/03/01 07:42:54;;;;;;;16.13;9.80;;;;;;;5.00;79.36;102867.19;5035234;28;20087;-78
2022/03/01 07:45:20;;;;;;;14.27;9.65;;;;;;;5.03;79.23;102868.94;5035699;28;20108;-78
2022/03/01 07:47:45;;;;;;;16.05;10.50;;;;;;;5.03;79.27;102874.13;5013794;28;20048;-78
2022/03/01 07:50:11;;;;;;;16.17;10.27;;;;;;;5.04;79.44;102881.09;5037767;28;20025;-78
2022/03/01 07:52:37;;;;;;;15.10;9.90;;;;;;;5.07;79.37;102875.03;5037213;28;20225;-78
2022/03/01 07:55:04;;;;;;;13.45;9.55;;;;;;;5.07;79.64;102873.31;5023331;28;20037;-78
2022/03/01 07:57:29;;;;;;;16.67;10.57;;;;;;;5.08;79.55;102874.22;5035807;28;20045;-78
2022/03/01 07:59:54;;;;;;;13.10;10.10;;;;;;;5.09;79.53;102874.22;5017616;28;20202;-78
2022/03/01 08:02:20;;;;;;;14.77;9.77;;;;;;;5.11;79.52;102880.31;5022340;28;20144;-78
2022/03/01 08:04:45;;;;;;;15.63;10.10;;;;;;;5.11;79.78;102879.44;5034314;28;20025;-78
2022/03/01 08:07:11;;;;;;;13.57;9.65;;;;;;;5.13;79.78;102880.31;5016699;28;20049;-78
2022/03/01 08:09:38;;;;;;;15.48;10.07;;;;;;;5.12;79.71;102882.06;5036049;28;20060;-78
2022/03/01 08:12:05;;;;;;;14.85;9.88;;;;;;;5.13;79.47;102882.91;5035657;28;20033;-78
2022/03/01 08:14:31;;;;;;;14.82;9.52;;;;;;;5.13;79.58;102894.19;5035732;28;20240;-78
2022/03/01 08:16:57;;;;;;;14.75;9.95;;;;;;;5.14;79.61;102889.88;5033159;28;20034;-78
2022/03/01 08:19:23;;;;;;;16.30;10.50;;;;;;;5.15;79.63;102897.69;5035830;28;20415;-78
2022/03/01 08:21:49;;;;;;;15.95;10.45;;;;;;;5.15;79.64;102889.91;5017957;28;20034;-78
2022/03/01 08:24:15;;;;;;;14.13;9.20;;;;;;;5.16;79.66;102891.63;5021384;28;20187;-78
2022/03/01 08:26:40;;;;;;;11.73;9.38;;;;;;;5.17;79.78;102892.53;5032733;28;20044;-78
2022/03/01 08:29:06;;;;;;;16.48;9.85;;;;;;;5.17;79.90;102889.94;5017425;28;20025;-78
2022/03/01 08:31:32;;;;;;;16.63;9.93;;;;;;;5.18;79.87;102900.34;5031950;28;20053;-78
2022/03/01 08:33:59;;;;;;;14.75;10.27;;;;;;;5.18;79.91;102897.75;5030691;28;20044;-78
2022/03/01 08:36:26;;;;;;;11.73;8.93;;;;;;;5.19;79.97;102893.41;5022461;28;20285;-78
2022/03/01 08:38:51;;;;;;;13.52;9.80;;;;;;;5.20;79.96;102889.94;5033580;28;20093;-78
2022/03/01 08:41:17;;;;;;;17.73;9.75;;;;;;;5.21;79.91;102893.44;5029498;28;20053;-78
2022/03/01 08:43:43;;;;;;;16.33;10.57;;;;;;;5.22;79.83;102898.66;5033602;28;20029;-78
2022/03/01 08:46:12;;;;;;;12.05;9.20;;;;;;;5.23;79.91;102894.34;5033768;28;20411;-78
2022/03/01 08:48:38;;;;;;;16.70;10.00;;;;;;;5.23;79.92;102892.59;5033131;28;20030;-78
2022/03/01 08:51:04;;;;;;;16.50;10.75;;;;;;;5.26;79.96;102902.19;5031594;28;20437;-78
2022/03/01 08:53:31;;;;;;;14.90;9.98;;;;;;;5.25;80.10;102908.22;5033728;28;20025;-78
2022/03/01 08:55:58;;;;;;;16.88;10.98;;;;;;;5.26;80.09;102907.38;5013672;28;20302;-78
2022/03/01 08:58:23;;;;;;;14.88;9.90;;;;;;;5.27;80.01;102909.09;5031288;28;20269;-78
2022/03/01 09:00:49;;;;;;;14.70;9.90;;;;;;;5.28;80.02;102916.06;5013686;28;20094;-78
2022/03/01 09:03:14;;;;;;;14.90;10.18;;;;;;;5.28;80.07;102916.94;5016892;28;20064;-78
2022/03/01 09:05:40;;;;;;;19.90;11.52;;;;;;;5.29;80.15;102916.06;5033496;28;20377;-78
2022/03/01 09:08:05;;;;;;;14.63;10.15;;;;;;;5.30;80.11;102912.63;5014316;28;20049;-78
2022/03/01 09:10:31;;;;;;;17.17;11.02;;;;;;;5.30;79.99;102919.56;5016926;28;20044;-78
2022/03/01 09:12:58;;;;;;;17.73;11.75;;;;;;;5.30;79.98;102920.41;5033570;28;20065;-78
2022/03/01 09:15:26;;;;;;;17.58;11.07;;;;;;;5.31;79.87;102924.78;5035317;28;20041;-78
2022/03/01 09:17:51;;;;;;;16.42;10.95;;;;;;;5.32;79.99;102925.66;5035429;28;20349;-78
2022/03/01 09:20:17;;;;;;;17.30;10.82;;;;;;;5.30;79.92;102920.41;5021221;28;20048;-78
2022/03/01 09:22:43;;;;;;;14.90;10.05;;;;;;;5.32;79.87;102928.25;5002136;28;20522;-78
2022/03/01 09:25:09;;;;;;;16.08;10.98;;;;;;;5.33;79.89;102927.38;5033189;28;20057;-78
2022/03/01 09:27:34;;;;;;;16.60;10.75;;;;;;;5.34;79.93;102932.59;5029562;28;20063;-78
2022/03/01 09:30:00;;;;;;;17.08;10.82;;;;;;;5.34;79.93;102939.53;5035343;28;20349;-78
2022/03/01 09:32:26;;;;;;;13.20;9.30;;;;;;;5.35;80.13;102943.88;5035367;28;20363;-78
2022/03/01 09:34:52;;;;;;;15.23;10.27;;;;;;;5.34;80.18;102945.59;5017332;28;20111;-79
2022/03/01 09:37:17;;;;;;;17.02;10.57;;;;;;;5.36;79.97;102948.22;5035153;28;20324;-79
2022/03/01 09:39:43;;;;;;;14.07;9.75;;;;;;;5.37;80.34;102949.97;5017388;28;20036;-79
2022/03/01 09:42:09;;;;;;;16.33;10.93;;;;;;;5.38;80.48;102956.91;5035043;28;20061;-79
2022/03/01 09:44:34;;;;;;;14.73;10.40;;;;;;;5.37;80.68;102956.03;5035233;28;20329;-78
2022/03/01 09:47:00;;;;;;;14.98;9.60;;;;;;;5.39;80.55;102963.88;5012539;28;20025;-79
2022/03/01 09:49:26;;;;;;;15.10;10.52;;;;;;;5.38;80.63;102960.41;5030390;28;20049;-79
2022/03/01 09:51:52;;;;;;;15.52;10.80;;;;;;;5.39;80.72;102963.88;5037578;28;20040;-79
2022/03/01 09:54:17;;;;;;;13.65;10.50;;;;;;;5.41;80.89;102963.88;5020523;28;20033;-79
2022/03/01 09:56:43;;;;;;;17.08;10.75;;;;;;;5.41;80.85;102963.88;5004910;28;20044;-79
2022/03/01 09:59:09;;;;;;;15.75;10.50;;;;;;;5.41;80.94;102963.88;5039075;28;20037;-79
2022/03/01 10:01:35;;;;;;;17.80;10.35;;;;;;;5.42;80.83;102966.50;5038867;28;20033;-79
2022/03/01 10:04:08;;;;;;;15.60;11.05;;;;;;;5.43;80.91;102967.38;5020648;28;20049;-79
2022/03/01 10:06:40;;;;;;;17.70;11.95;;;;;;;5.41;81.09;102958.69;5012932;28;20038;-79
2022/03/01 10:09:12;;;;;;;17.77;10.57;;;;;;;5.41;81.42;102962.16;5031111;28;20036;-79
2022/03/01 10:11:38;;;;;;;15.93;11.02;;;;;;;5.41;81.55;102966.47;4993533;28;20025;-79
2022/03/01 10:14:03;;;;;;;17.05;11.30;;;;;;;5.41;81.67;102958.69;5037683;28;20252;-79
2022/03/01 10:16:37;;;;;;;15.80;10.93;;;;;;;5.41;81.57;102964.75;5035347;28;20099;-79
2022/03/01 10:19:02;;;;;;;19.48;12.38;;;;;;;5.42;82.10;102965.63;5034624;28;20029;-79
2022/03/01 10:21:28;;;;;;;17.77;12.00;;;;;;;5.41;82.13;102959.56;5020681;28;20272;-79
2022/03/01 10:23:58;;;;;;;17.85;11.25;;;;;;;5.41;82.34;102956.97;5006983;28;20069;-79
2022/03/01 10:26:25;;;;;;;17.58;11.57;;;;;;;5.40;82.55;102955.19;5032396;28;20264;-79
2022/03/01 10:28:53;;;;;;;18.98;12.48;;;;;;;5.41;82.69;102958.69;5037805;28;20060;-79
2022/03/01 10:31:27;;;;;;;20.38;11.63;;;;;;;5.42;82.66;102950.03;5037523;28;20036;-79
2022/03/01 10:34:02;;;;;;;18.65;12.07;;;;;;;5.42;82.78;102950.03;5020212;28;20143;-79
2022/03/01 10:36:35;;;;;;;20.95;12.45;;;;;;;5.40;83.01;102955.19;5012902;28;20045;-79
2022/03/01 10:39:09;;;;;;;17.05;12.00;;;;;;;5.41;83.11;102953.50;5036210;28;20096;-79
2022/03/01 10:41:42;;;;;;;20.95;12.45;;;;;;;5.40;83.19;102955.19;5037723;28;20387;-79
2022/03/01 10:44:15;;;;;;;16.90;11.95;;;;;;;5.40;83.26;102952.59;5015908;28;20071;-79
2022/03/01 10:46:43;;;;;;;20.50;12.40;;;;;;;5.38;83.48;102957.78;5036754;28;20045;-79
2022/03/01 10:49:28;;;;;;;17.73;11.98;;;;;;;5.39;83.42;102959.53;5034057;28;20025;-79
2022/03/01 10:52:05;;;;;;;18.83;12.20;;;;;;;5.42;83.50;102961.31;5010594;28;20224;-79
2022/03/01 10:54:32;;;;;;;20.52;12.40;;;;;;;5.43;83.58;102956.97;5036086;28;20025;-79
2022/03/01 10:56:59;;;;;;;20.50;12.27;;;;;;;5.44;83.50;102958.72;5019485;28;20337;-79
2022/03/01 10:59:31;;;;;;;21.02;13.23;;;;;;;5.42;83.71;102953.53;5037888;28;20044;-79
2022/03/01 11:01:56;;;;;;;22.13;14.40;;;;;;;5.41;83.77;102941.38;5027999;28;20104;-79
2022/03/01 11:04:25;;;;;;;21.65;13.70;;;;;;;5.43;84.15;102938.78;5036045;28;20041;-79
2022/03/01 11:06:53;;;;;;;22.42;13.50;;;;;;;5.42;84.08;102927.53;5037282;28;20096;-79
2022/03/01 11:09:19;;;;;;;24.30;14.35;;;;;;;5.42;84.36;102926.63;5030702;28;20052;-79
2022/03/01 11:11:45;;;;;;;28.25;14.90;;;;;;;5.43;84.79;102928.41;5035019;28;20273;-79
2022/03/01 11:14:15;;;;;;;21.10;14.13;;;;;;;5.44;84.99;102928.44;5002630;28;20368;-79
2022/03/01 11:16:59;;;;;;;24.92;14.45;;;;;;;5.48;85.09;102926.75;5040010;28;20039;-79
2022/03/01 11:19:48;;;;;;;23.98;14.15;;;;;;;5.52;85.23;102928.53;5020067;28;20113;-79